Chattaroy, Washington
Current Conditions -  °F | °C
As of 10:53 AM on Tuesday 27 Jan 2015 (Local Time) from KDEW Reporting Station
Moderate Fog Moderate Fog  
Wind Chill: -1°   Ceiling: 200
Heat Index: -1°   Visibility: 0mi
Dew Point: -1°   Wind: 0mph
Humidity: 100%   Direction: NA
Pressure: 30.03"   Gusts: NA
Location:  47.89°N, 117.36°W
Report Text: KDEW 271853Z AUTO 00000KT M1/4SM FZFG VV002 M01/M01 A3003 RMK AO2 SLP190 T10061006
Loading
Personal Weather Stations






























Interactive Weather Map New forecast layout! Learn more

10-Day Weather Forecast

Advertisements
Track Severe Weather on mobile